Windham, NH (03087)

8:37 PM EST on January 24, 2017 (GMT -0500)
Ministerial Rd | | Change Station
Active Advisory: Gale Warning

Elev 207 ft 42.80 °N, 71.30 °W | Updated 13 minutes ago

Light Snow
Light Snow Mist
32.8 °F
Feels Like 33 °F
N
1.0
Wind Variable Wind from WNW
Gusts 4.0 mph

Today
High -- | Low -- °F
--% Chance of Precip.
Yesterday
High -- | Low -- °F
Precip. -- in
Pressure 29.34 in
Visibility 3.0 miles
Clouds Overcast 600 ft
Windchill 33 °F
Dew Point 32 °F
Humidity 97%
Rainfall 0.02 in
Snow Depth Not available.
7:07 AM 4:48 PM
Waning Crescent, 9% visible
SPECI KLWM 250125Z 35009KT 3SM -SN BR OVC006 01/01 A2934 RMK AO2 P0000 T00110006
Pressure 29.34 in
Visibility 3.0 miles
Clouds Overcast 600 ft
Windchill 33 °F
Dew Point 32 °F
Humidity 97%
Rainfall 0.02 in
Snow Depth Not available.
7:07 AM 4:48 PM
Waning Crescent, 9% visible
SPECI KLWM 250125Z 35009KT 3SM -SN BR OVC006 01/01 A2934 RMK AO2 P0000 T00110006

Get Your Daily Forecast Email!

Thanks for signing up!

Be on the lookout for a verification email in your inbox.

You'll start receiving the daily forecast at 8 AM.

×

10-Day Weather Forecast

Almanac

Astronomy

Jan. 24, 2017 Rise Set
Actual Time
Civil Twilight
Nautical Twilight
Astronomical Twilight
Moon
Length of Visible Light
Length of Day
Tomorrow will be .
, % of the Moon is Illuminated

Today's Extremes

State Highs State Lows

Community

WunderPhotos

Upload Photos

1,962,540 photos uploaded!

WunderBlog® & News

Nearby

Air Quality

  Air Quality AQ Index Pollutant
Not available.

Snow Depth

Station Depth Elevation

Earthquake Activity

City Distance Mag. Time & Date
Minimum magnitude displayed is 2.5.

Coastal Water Temperatures

Place Temperature

Stations

Nearby Weather Stations

Station Location Temp. Windchill Dew Point Humidity Wind Precip. Elev Updated Type
                   

Watches & Warnings

Gale Warning
Issued: 3:50 PM EST Jan. 24, 2017 – National Weather Service

... Gale Warning in effect until 10 PM EST this evening...

The National Weather Service in Taunton has issued a Gale
Warning... which is in effect until 10 PM EST this evening.

* Winds and seas... northeast winds 15 to 25 kt with gusts up to
35 kt. Seas 13 to 18 feet.

Precautionary/preparedness actions...

A Gale Warning means winds of 34 to 47 knots are imminent or
occurring. Operating a vessel in gale conditions requires
experience and properly equipped vessels. It is highly
recommended that mariners without the proper experience seek safe
Harbor prior to the onset of gale conditions.